createdAt,value
2023-05-14T00:00:30.872Z,14.23
2023-05-14T00:02:58.179Z,14.12
2023-05-14T00:05:25.560Z,14.04
2023-05-14T00:07:52.662Z,14.18
2023-05-14T00:10:21.968Z,14.15
2023-05-14T00:12:49.355Z,14.06
2023-05-14T00:15:16.461Z,13.80
2023-05-14T00:17:43.695Z,13.70
2023-05-14T00:20:12.362Z,13.78
2023-05-14T00:22:39.797Z,13.91
2023-05-14T00:25:08.405Z,13.60
2023-05-14T00:27:37.832Z,13.64
2023-05-14T00:30:09.067Z,13.71
2023-05-14T00:32:36.437Z,13.72
2023-05-14T00:35:04.535Z,13.59
2023-05-14T00:37:32.240Z,13.78
2023-05-14T00:39:59.476Z,13.57
2023-05-14T00:42:27.253Z,13.60
2023-05-14T00:44:54.478Z,13.60
2023-05-14T00:47:21.708Z,13.50
2023-05-14T00:49:48.795Z,13.53
2023-05-14T00:52:16.888Z,13.43
2023-05-14T00:54:46.903Z,13.44
2023-05-14T00:57:14.200Z,13.32
2023-05-14T00:59:42.788Z,13.51
2023-05-14T01:02:28.505Z,13.51
2023-05-14T01:04:56.194Z,13.43
2023-05-14T01:07:23.262Z,13.32
2023-05-14T01:10:10.719Z,13.33
2023-05-14T01:13:18.659Z,13.34
2023-05-14T01:15:47.795Z,13.27
2023-05-14T01:18:19.572Z,13.17
2023-05-14T01:20:51.627Z,13.24
2023-05-14T01:23:18.721Z,13.06
2023-05-14T01:25:46.534Z,13.12
2023-05-14T01:28:18.786Z,13.24
2023-05-14T01:31:04.071Z,13.32
2023-05-14T01:33:34.107Z,13.35
2023-05-14T01:36:01.997Z,13.35
2023-05-14T01:38:34.226Z,13.24
2023-05-14T01:41:02.289Z,13.22
2023-05-14T01:43:30.214Z,13.19
2023-05-14T01:45:57.402Z,12.94
2023-05-14T01:48:25.860Z,12.94
2023-05-14T01:50:53.160Z,12.99
2023-05-14T01:53:20.766Z,12.98
2023-05-14T01:55:48.224Z,12.93
2023-05-14T01:58:15.537Z,12.90
2023-05-14T02:00:44.000Z,12.81
2023-05-14T02:03:11.265Z,12.76
2023-05-14T02:05:38.499Z,12.69
2023-05-14T02:08:05.889Z,13.31
2023-05-14T02:10:33.278Z,14.03
2023-05-14T02:13:00.422Z,13.93
2023-05-14T02:15:27.618Z,14.62
2023-05-14T02:17:54.973Z,14.58
2023-05-14T02:20:22.559Z,14.12
2023-05-14T02:22:50.957Z,14.19
2023-05-14T02:25:18.049Z,14.98
2023-05-14T02:27:45.540Z,14.98
2023-05-14T02:30:13.220Z,15.43
2023-05-14T02:32:41.027Z,15.35
2023-05-14T02:35:08.863Z,14.88
2023-05-14T02:37:36.190Z,14.66
2023-05-14T02:40:04.538Z,14.17
2023-05-14T02:42:33.478Z,13.87
2023-05-14T02:45:00.878Z,13.69
2023-05-14T02:47:28.562Z,13.41
2023-05-14T02:49:55.787Z,14.05
2023-05-14T02:52:23.625Z,13.82
2023-05-14T02:54:50.851Z,13.45
2023-05-14T02:57:17.919Z,13.54
2023-05-14T02:59:45.123Z,13.64
2023-05-14T03:02:12.637Z,13.66
2023-05-14T03:04:40.260Z,13.53
2023-05-14T03:07:07.403Z,13.50
2023-05-14T03:09:36.061Z,13.55
2023-05-14T03:12:05.441Z,13.61
2023-05-14T03:14:32.544Z,13.85
2023-05-14T03:16:59.721Z,14.03
2023-05-14T03:19:27.247Z,14.14
2023-05-14T03:21:54.473Z,13.93
2023-05-14T03:24:21.574Z,13.98
2023-05-14T03:26:48.832Z,13.86
2023-05-14T03:29:18.222Z,14.02
2023-05-14T03:31:45.360Z,14.01
2023-05-14T03:34:12.617Z,13.83
2023-05-14T03:36:39.922Z,13.94
2023-05-14T03:39:07.167Z,13.97
2023-05-14T03:41:36.603Z,14.02
2023-05-14T03:44:03.790Z,13.94
2023-05-14T03:46:30.861Z,13.79
2023-05-14T03:48:58.237Z,13.65
2023-05-14T03:51:25.826Z,13.51
2023-05-14T03:53:52.972Z,13.70
2023-05-14T03:56:20.258Z,13.66
2023-05-14T03:58:47.357Z,13.57
2023-05-14T04:01:15.481Z,13.92
2023-05-14T04:03:42.845Z,14.66
2023-05-14T04:06:10.702Z,14.53
2023-05-14T04:08:37.785Z,14.37
2023-05-14T04:11:05.371Z,14.01
2023-05-14T04:13:32.469Z,13.89
2023-05-14T04:15:59.643Z,13.74
2023-05-14T04:18:26.814Z,13.89
2023-05-14T04:20:55.145Z,14.27
2023-05-14T04:23:22.383Z,14.54
2023-05-14T04:25:49.493Z,15.03
2023-05-14T04:28:16.585Z,15.05
2023-05-14T04:30:43.689Z,14.58
2023-05-14T04:33:11.173Z,14.36
2023-05-14T04:35:38.658Z,14.16
2023-05-14T04:38:06.219Z,13.86
2023-05-14T04:40:33.317Z,14.13
2023-05-14T04:43:00.491Z,14.03
2023-05-14T04:45:27.616Z,14.20
2023-05-14T04:47:54.827Z,14.29
2023-05-14T04:50:22.308Z,14.45
2023-05-14T04:52:49.710Z,14.67
2023-05-14T04:55:16.962Z,14.22
2023-05-14T04:57:44.241Z,13.97
2023-05-14T05:00:12.026Z,14.49
2023-05-14T05:02:39.455Z,14.35
2023-05-14T05:05:06.673Z,14.40
2023-05-14T05:07:34.335Z,14.47
2023-05-14T05:10:01.651Z,14.33
2023-05-14T05:12:35.433Z,14.43
2023-05-14T05:15:02.787Z,14.38
2023-05-14T05:17:33.377Z,14.69
2023-05-14T05:20:00.730Z,14.82
2023-05-14T05:22:28.781Z,15.17
2023-05-14T05:24:55.956Z,15.40
2023-05-14T05:27:23.068Z,15.55
2023-05-14T05:29:50.171Z,15.34
2023-05-14T05:32:17.304Z,15.30
2023-05-14T05:34:44.395Z,15.67
2023-05-14T05:37:13.611Z,15.79
2023-05-14T05:39:40.802Z,15.70
2023-05-14T05:42:08.313Z,15.13
2023-05-14T05:44:35.629Z,14.96
2023-05-14T05:47:02.917Z,15.31
2023-05-14T05:49:30.137Z,15.56
2023-05-14T05:51:57.516Z,15.80
2023-05-14T05:54:25.603Z,15.88
2023-05-14T05:56:52.996Z,15.97
2023-05-14T05:59:20.338Z,15.82
2023-05-14T06:01:48.269Z,16.17
2023-05-14T06:04:15.536Z,16.35
2023-05-14T06:06:42.663Z,16.42
2023-05-14T06:09:09.930Z,16.67
2023-05-14T06:11:37.042Z,16.50
2023-05-14T06:14:04.707Z,16.63
2023-05-14T06:16:32.067Z,16.75
2023-05-14T06:18:59.469Z,16.67
2023-05-14T06:21:26.842Z,16.92
2023-05-14T06:23:54.085Z,16.58
2023-05-14T06:26:21.314Z,16.79
2023-05-14T06:28:48.456Z,15.87
2023-05-14T06:31:15.553Z,15.88
2023-05-14T06:33:42.742Z,16.60
2023-05-14T06:36:10.108Z,16.64
2023-05-14T06:38:37.389Z,16.59
2023-05-14T06:41:04.624Z,17.01
2023-05-14T06:43:31.698Z,16.69
2023-05-14T06:45:58.849Z,16.88
2023-05-14T06:48:27.922Z,16.92
2023-05-14T06:50:55.750Z,16.74
2023-05-14T06:53:23.023Z,17.08
2023-05-14T06:55:50.906Z,17.24
2023-05-14T06:58:18.133Z,17.03
2023-05-14T07:00:45.233Z,17.10
2023-05-14T07:03:12.309Z,17.47
2023-05-14T07:05:41.311Z,18.31
2023-05-14T07:08:08.490Z,18.61
2023-05-14T07:10:35.936Z,18.62
2023-05-14T07:13:03.678Z,17.81
2023-05-14T07:15:30.999Z,17.64
2023-05-14T07:17:58.101Z,18.09
2023-05-14T07:20:26.606Z,17.15
2023-05-14T07:22:54.162Z,17.54
2023-05-14T07:25:21.346Z,17.25
2023-05-14T07:27:48.477Z,17.67
2023-05-14T07:30:15.748Z,17.61
2023-05-14T07:32:43.324Z,17.65
2023-05-14T07:35:11.809Z,17.37
2023-05-14T07:37:39.140Z,17.37
2023-05-14T07:40:07.129Z,17.23
2023-05-14T07:42:37.035Z,16.95
2023-05-14T07:45:05.811Z,16.95
2023-05-14T07:47:34.878Z,16.93
2023-05-14T07:50:02.486Z,16.98
2023-05-14T07:52:32.524Z,16.92
2023-05-14T07:55:01.403Z,16.85
2023-05-14T07:57:32.520Z,16.98
2023-05-14T07:59:59.660Z,16.71
2023-05-14T08:02:26.900Z,17.04
2023-05-14T08:04:54.281Z,16.96
2023-05-14T08:07:21.808Z,17.43
2023-05-14T08:09:48.885Z,17.80
2023-05-14T08:12:16.287Z,18.09
2023-05-14T08:14:43.339Z,18.39
2023-05-14T08:17:10.569Z,18.65
2023-05-14T08:19:37.892Z,17.98
2023-05-14T08:22:05.683Z,17.69
2023-05-14T08:24:32.789Z,17.25
2023-05-14T08:26:59.836Z,17.40
2023-05-14T08:29:26.969Z,17.53
2023-05-14T08:31:54.028Z,17.47
2023-05-14T08:34:21.162Z,17.51
2023-05-14T08:36:48.397Z,17.71
2023-05-14T08:39:15.490Z,17.85
2023-05-14T08:41:43.611Z,17.82
2023-05-14T08:44:21.546Z,17.43
2023-05-14T08:46:50.727Z,17.58
2023-05-14T08:49:41.516Z,17.45
2023-05-14T08:52:12.707Z,17.54
2023-05-14T08:54:42.908Z,17.22
2023-05-14T08:57:11.324Z,17.62
2023-05-14T08:59:38.485Z,17.38
2023-05-14T09:02:07.062Z,17.67
2023-05-14T09:04:34.995Z,17.56
2023-05-14T09:07:04.167Z,17.28
2023-05-14T09:09:31.330Z,17.30
2023-05-14T09:11:58.759Z,17.31
2023-05-14T09:14:26.402Z,17.28
2023-05-14T09:16:54.842Z,17.27
2023-05-14T09:19:22.082Z,17.88
2023-05-14T09:21:50.089Z,18.46
2023-05-14T09:24:25.000Z,18.49
2023-05-14T09:26:57.482Z,18.97
2023-05-14T09:29:29.472Z,18.36
2023-05-14T09:31:57.998Z,18.24
2023-05-14T09:34:25.487Z,17.77
2023-05-14T09:37:06.655Z,17.64
2023-05-14T09:39:34.939Z,17.61
2023-05-14T09:42:02.710Z,17.71
2023-05-14T09:44:30.055Z,17.97
2023-05-14T09:46:57.277Z,18.53
2023-05-14T09:49:24.509Z,18.48
2023-05-14T09:51:51.796Z,18.62
2023-05-14T09:54:18.904Z,18.73
2023-05-14T09:56:46.266Z,18.69
2023-05-14T09:59:13.499Z,18.68
2023-05-14T10:01:43.277Z,18.59
2023-05-14T10:04:12.320Z,18.28
2023-05-14T10:06:42.222Z,17.47
2023-05-14T10:09:13.483Z,17.88
2023-05-14T10:11:44.515Z,17.68
2023-05-14T10:14:18.736Z,18.05
2023-05-14T10:16:50.132Z,18.09
2023-05-14T10:19:20.133Z,18.54
2023-05-14T10:21:56.865Z,18.08
2023-05-14T10:24:25.398Z,17.95
2023-05-14T10:26:52.900Z,18.30
2023-05-14T10:29:19.973Z,18.48
2023-05-14T10:31:54.789Z,18.09
2023-05-14T10:34:38.913Z,18.35
2023-05-14T10:37:09.326Z,18.58
2023-05-14T10:39:43.954Z,18.05
2023-05-14T10:42:13.281Z,17.82
2023-05-14T10:44:53.829Z,17.71
2023-05-14T10:47:20.833Z,17.93
2023-05-14T10:49:49.299Z,17.96
2023-05-14T10:52:19.103Z,17.86
2023-05-14T10:54:57.719Z,17.89
2023-05-14T10:57:27.786Z,17.63
2023-05-14T11:00:00.775Z,17.91
2023-05-14T11:02:34.994Z,17.73
2023-05-14T11:05:11.259Z,17.57
2023-05-14T11:07:43.550Z,17.61
2023-05-14T11:10:11.973Z,17.99
2023-05-14T11:12:41.723Z,18.39
2023-05-14T11:15:11.338Z,17.84
2023-05-14T11:17:41.677Z,17.65
2023-05-14T11:20:09.862Z,17.74
2023-05-14T11:22:38.411Z,17.74
2023-05-14T11:25:06.759Z,17.96
2023-05-14T11:27:40.199Z,17.93
2023-05-14T11:30:17.663Z,18.35
2023-05-14T11:32:46.634Z,18.57
2023-05-14T11:35:14.782Z,18.45
2023-05-14T11:37:42.632Z,18.55
2023-05-14T11:40:17.027Z,18.07
2023-05-14T11:42:44.589Z,17.96
2023-05-14T11:45:13.220Z,18.20
2023-05-14T11:47:43.532Z,18.41
2023-05-14T11:50:11.308Z,18.50
2023-05-14T11:52:41.058Z,17.80
2023-05-14T11:55:12.918Z,18.36
2023-05-14T11:57:41.199Z,18.72
2023-05-14T12:00:21.340Z,18.58
2023-05-14T12:02:49.988Z,18.11
2023-05-14T12:05:17.895Z,18.14
2023-05-14T12:07:46.163Z,18.34
2023-05-14T12:10:14.085Z,18.70
2023-05-14T12:12:46.258Z,18.30
2023-05-14T12:15:14.807Z,18.53
2023-05-14T12:17:42.284Z,18.44
2023-05-14T12:20:11.163Z,18.46
2023-05-14T12:22:39.071Z,18.27
2023-05-14T12:25:15.448Z,17.72
2023-05-14T12:27:45.109Z,17.96
2023-05-14T12:30:21.235Z,18.18
2023-05-14T12:32:52.114Z,18.00
2023-05-14T12:35:20.836Z,18.19
2023-05-14T12:37:47.992Z,18.42
2023-05-14T12:40:15.425Z,18.25
2023-05-14T12:42:42.605Z,18.38
2023-05-14T12:45:10.708Z,18.36
2023-05-14T12:47:38.053Z,18.22
2023-05-14T12:50:06.269Z,17.89
2023-05-14T12:52:38.452Z,17.79
2023-05-14T12:55:10.139Z,17.77
2023-05-14T12:57:39.354Z,17.48
2023-05-14T13:00:09.906Z,17.82
2023-05-14T13:02:43.033Z,18.13
2023-05-14T13:05:12.161Z,17.92
2023-05-14T13:07:39.527Z,18.28
2023-05-14T13:10:07.304Z,18.53
2023-05-14T13:12:34.578Z,18.21
2023-05-14T13:15:02.030Z,18.37
2023-05-14T13:17:33.527Z,18.63
2023-05-14T13:20:00.869Z,18.62
2023-05-14T13:22:28.219Z,18.58
2023-05-14T13:24:55.349Z,18.51
2023-05-14T13:27:22.445Z,18.66
2023-05-14T13:29:49.548Z,18.76
2023-05-14T13:32:16.716Z,18.33
2023-05-14T13:34:44.211Z,18.20
2023-05-14T13:37:11.680Z,18.26
2023-05-14T13:39:41.013Z,18.08
2023-05-14T13:42:08.558Z,18.51
2023-05-14T13:44:36.323Z,17.96
2023-05-14T13:47:04.435Z,18.38
2023-05-14T13:49:31.572Z,18.12
2023-05-14T13:51:58.737Z,17.78
2023-05-14T13:54:26.113Z,17.84
2023-05-14T13:56:53.277Z,17.50
2023-05-14T13:59:20.666Z,17.77
2023-05-14T14:01:49.717Z,17.98
2023-05-14T14:04:17.814Z,17.60
2023-05-14T14:06:44.934Z,17.92
2023-05-14T14:09:13.642Z,18.32
2023-05-14T14:11:41.364Z,18.68
2023-05-14T14:14:08.586Z,18.18
2023-05-14T14:16:36.331Z,17.99
2023-05-14T14:19:03.835Z,18.01
2023-05-14T14:21:31.940Z,17.94
2023-05-14T14:23:59.355Z,17.96
2023-05-14T14:26:28.048Z,17.43
2023-05-14T14:28:55.788Z,17.76
2023-05-14T14:31:23.128Z,18.03
2023-05-14T14:33:50.419Z,17.95
2023-05-14T14:36:17.596Z,17.57
2023-05-14T14:38:44.869Z,18.01
2023-05-14T14:41:12.315Z,17.79
2023-05-14T14:43:41.187Z,17.46
2023-05-14T14:46:09.423Z,17.84
2023-05-14T14:48:40.082Z,17.83
2023-05-14T14:51:08.690Z,17.84
2023-05-14T14:53:37.192Z,18.00
2023-05-14T14:56:05.204Z,17.96
2023-05-14T14:58:32.860Z,17.66
2023-05-14T15:01:01.423Z,17.36
2023-05-14T15:03:29.714Z,17.42
2023-05-14T15:05:57.181Z,17.41
2023-05-14T15:08:28.214Z,17.43
2023-05-14T15:10:59.486Z,17.46
2023-05-14T15:13:27.216Z,17.31
2023-05-14T15:15:54.764Z,17.27
2023-05-14T15:18:21.989Z,17.07
2023-05-14T15:20:49.449Z,17.06
2023-05-14T15:23:16.612Z,17.14
2023-05-14T15:25:43.853Z,17.49
2023-05-14T15:28:11.399Z,17.91
2023-05-14T15:30:38.605Z,17.56
2023-05-14T15:33:08.866Z,17.28
2023-05-14T15:35:36.721Z,16.98
2023-05-14T15:38:03.919Z,17.22
2023-05-14T15:40:31.229Z,17.28
2023-05-14T15:42:58.370Z,17.25
2023-05-14T15:45:25.695Z,17.14
2023-05-14T15:47:53.011Z,16.98
2023-05-14T15:50:20.664Z,17.18
2023-05-14T15:52:48.372Z,17.32
2023-05-14T15:55:15.868Z,17.44
2023-05-14T15:57:43.041Z,16.97
2023-05-14T16:00:11.200Z,16.96
2023-05-14T16:02:41.487Z,17.20
2023-05-14T16:05:09.236Z,16.75
2023-05-14T16:07:37.568Z,16.83
2023-05-14T16:10:06.079Z,16.97
2023-05-14T16:12:33.981Z,17.08
2023-05-14T16:15:01.452Z,17.10
2023-05-14T16:17:35.058Z,17.79
2023-05-14T16:20:02.566Z,17.56
2023-05-14T16:22:34.819Z,17.26
2023-05-14T16:25:03.527Z,17.13
2023-05-14T16:27:33.310Z,17.10
2023-05-14T16:30:00.623Z,16.79
2023-05-14T16:32:28.095Z,16.64
2023-05-14T16:34:56.636Z,16.85
2023-05-14T16:37:24.108Z,16.75
2023-05-14T16:39:51.205Z,16.48
2023-05-14T16:42:18.330Z,16.44
2023-05-14T16:45:13.867Z,16.36
2023-05-14T16:47:41.496Z,16.60
2023-05-14T16:50:08.964Z,16.16
2023-05-14T16:52:36.052Z,16.07
2023-05-14T16:55:03.257Z,16.05
2023-05-14T16:57:33.083Z,16.20
2023-05-14T17:00:00.420Z,16.06
2023-05-14T17:02:27.612Z,16.07
2023-05-14T17:04:55.405Z,16.19
2023-05-14T17:07:22.669Z,16.30
2023-05-14T17:09:49.865Z,16.47
2023-05-14T17:12:17.164Z,16.53
2023-05-14T17:14:44.344Z,16.49
2023-05-14T17:17:11.584Z,16.24
2023-05-14T17:19:38.659Z,16.07
2023-05-14T17:22:06.087Z,15.76
2023-05-14T17:24:33.277Z,15.35
2023-05-14T17:27:00.347Z,15.58
2023-05-14T17:29:27.404Z,15.46
2023-05-14T17:31:54.796Z,15.23
2023-05-14T17:34:22.097Z,15.20
2023-05-14T17:36:49.440Z,15.43
2023-05-14T17:39:16.557Z,15.57
2023-05-14T17:41:43.864Z,15.56
2023-05-14T17:44:12.868Z,15.68
2023-05-14T17:46:41.932Z,15.72
2023-05-14T17:49:09.206Z,15.55
2023-05-14T17:51:36.296Z,15.36
2023-05-14T17:54:03.601Z,15.31
2023-05-14T17:56:30.768Z,15.38
2023-05-14T17:58:57.888Z,15.22
2023-05-14T18:01:25.087Z,15.20
2023-05-14T18:03:52.543Z,15.31
2023-05-14T18:06:19.721Z,15.23
2023-05-14T18:08:46.859Z,15.12
2023-05-14T18:11:13.945Z,15.14
2023-05-14T18:13:41.134Z,15.03
2023-05-14T18:16:08.435Z,14.97
2023-05-14T18:18:36.883Z,15.00
2023-05-14T18:21:04.490Z,14.82
2023-05-14T18:23:31.746Z,14.77
2023-05-14T18:25:59.626Z,14.74
2023-05-14T18:28:26.750Z,14.80
2023-05-14T18:30:53.857Z,14.86
2023-05-14T18:33:20.937Z,14.80
2023-05-14T18:35:48.103Z,14.83
2023-05-14T18:38:17.951Z,14.85
2023-05-14T18:40:45.183Z,14.90
2023-05-14T18:43:13.554Z,14.81
2023-05-14T18:45:40.803Z,14.77
2023-05-14T18:48:08.914Z,14.74
2023-05-14T18:50:37.480Z,14.69
2023-05-14T18:53:06.465Z,14.74
2023-05-14T18:55:35.412Z,14.71
2023-05-14T18:58:03.079Z,14.63
2023-05-14T19:00:30.515Z,14.73
2023-05-14T19:02:57.776Z,14.63
2023-05-14T19:05:25.266Z,14.73
2023-05-14T19:07:52.558Z,14.66
2023-05-14T19:10:19.641Z,14.65
2023-05-14T19:12:47.965Z,14.61
2023-05-14T19:15:15.181Z,14.45
2023-05-14T19:17:42.702Z,14.45
2023-05-14T19:20:10.738Z,14.46
2023-05-14T19:22:38.043Z,14.55
2023-05-14T19:25:07.599Z,14.61
2023-05-14T19:27:37.380Z,14.59
2023-05-14T19:30:05.155Z,14.55
2023-05-14T19:32:32.722Z,14.47
2023-05-14T19:34:59.914Z,14.44
2023-05-14T19:37:27.102Z,14.51
2023-05-14T19:39:54.294Z,14.55
2023-05-14T19:42:21.397Z,14.46
2023-05-14T19:44:48.431Z,14.47
2023-05-14T19:47:15.777Z,14.43
2023-05-14T19:49:42.855Z,14.43
2023-05-14T19:52:11.421Z,14.43
2023-05-14T19:54:38.552Z,14.44
2023-05-14T19:57:06.018Z,14.39
2023-05-14T19:59:33.331Z,14.40
2023-05-14T20:02:01.290Z,14.33
2023-05-14T20:04:28.414Z,14.35
2023-05-14T20:06:55.514Z,14.29
2023-05-14T20:09:22.855Z,14.23
2023-05-14T20:11:49.943Z,14.20
2023-05-14T20:14:17.118Z,13.96
2023-05-14T20:16:44.631Z,13.82
2023-05-14T20:19:12.165Z,13.75
2023-05-14T20:21:39.320Z,13.82
2023-05-14T20:24:06.592Z,13.73
2023-05-14T20:26:33.972Z,13.85
2023-05-14T20:29:01.042Z,13.92
2023-05-14T20:31:28.316Z,13.90
2023-05-14T20:33:55.439Z,13.89
2023-05-14T20:36:22.460Z,13.85
2023-05-14T20:38:49.599Z,13.74
2023-05-14T20:41:16.768Z,13.77
2023-05-14T20:43:43.843Z,13.82
2023-05-14T20:46:10.989Z,13.80
2023-05-14T20:48:38.110Z,13.81
2023-05-14T20:51:06.626Z,13.87
2023-05-14T20:53:34.153Z,13.82
2023-05-14T20:56:01.442Z,13.76
2023-05-14T20:58:28.946Z,13.68
2023-05-14T21:00:56.302Z,13.79
2023-05-14T21:03:24.569Z,13.72
2023-05-14T21:05:52.710Z,13.63
2023-05-14T21:08:19.801Z,13.66
2023-05-14T21:10:47.106Z,13.64
2023-05-14T21:13:14.368Z,13.59
2023-05-14T21:15:41.447Z,13.54
2023-05-14T21:18:08.673Z,13.51
2023-05-14T21:20:35.761Z,13.44
2023-05-14T21:23:02.888Z,13.50
2023-05-14T21:25:30.561Z,13.43
2023-05-14T21:27:57.643Z,13.55
2023-05-14T21:30:24.843Z,13.43
2023-05-14T21:32:52.035Z,13.41
2023-05-14T21:35:19.270Z,13.42
2023-05-14T21:37:46.424Z,13.40
2023-05-14T21:40:13.608Z,13.29
2023-05-14T21:42:40.900Z,13.34
2023-05-14T21:45:08.554Z,13.22
2023-05-14T21:47:36.097Z,13.21
2023-05-14T21:50:04.994Z,13.09
2023-05-14T21:52:33.153Z,13.15
2023-05-14T21:55:00.180Z,13.19
2023-05-14T21:57:28.420Z,13.12
2023-05-14T21:59:56.106Z,13.07
2023-05-14T22:02:23.381Z,13.15
2023-05-14T22:04:50.546Z,13.23
2023-05-14T22:07:17.761Z,13.32
2023-05-14T22:09:44.833Z,13.37
2023-05-14T22:12:11.924Z,13.42
2023-05-14T22:14:38.964Z,13.42
2023-05-14T22:17:06.081Z,13.39
2023-05-14T22:19:33.147Z,13.32
2023-05-14T22:22:00.234Z,13.08
2023-05-14T22:24:27.340Z,13.18
2023-05-14T22:26:54.817Z,13.11
2023-05-14T22:29:21.982Z,13.05
2023-05-14T22:31:49.193Z,13.03
2023-05-14T22:34:16.321Z,13.05
2023-05-14T22:36:43.393Z,12.99
2023-05-14T22:39:12.156Z,12.98
2023-05-14T22:41:40.710Z,12.95
2023-05-14T22:44:07.757Z,13.00
2023-05-14T22:46:34.947Z,13.00
2023-05-14T22:49:02.090Z,13.01
2023-05-14T22:51:29.362Z,12.99
2023-05-14T22:53:56.441Z,12.95
2023-05-14T22:56:23.549Z,12.77
2023-05-14T22:58:51.001Z,12.87
2023-05-14T23:01:18.153Z,12.87
2023-05-14T23:03:45.214Z,12.84
2023-05-14T23:06:14.549Z,12.92
2023-05-14T23:08:41.619Z,12.90
2023-05-14T23:11:08.707Z,12.81
2023-05-14T23:13:35.807Z,12.87
2023-05-14T23:16:03.815Z,12.80
2023-05-14T23:18:31.153Z,12.86
2023-05-14T23:20:58.421Z,12.84
2023-05-14T23:23:25.613Z,12.79
2023-05-14T23:25:53.768Z,12.70
2023-05-14T23:28:20.890Z,12.71
2023-05-14T23:30:47.997Z,12.70
2023-05-14T23:33:15.160Z,12.64
2023-05-14T23:35:42.267Z,12.59
2023-05-14T23:38:09.464Z,12.57
2023-05-14T23:40:38.068Z,12.62
2023-05-14T23:43:05.231Z,12.64
2023-05-14T23:45:32.497Z,12.65
2023-05-14T23:48:01.346Z,12.51
2023-05-14T23:50:28.569Z,12.55
2023-05-14T23:52:56.102Z,12.55
2023-05-14T23:55:23.514Z,12.48
2023-05-14T23:57:51.268Z,12.48
